Time;durP1;ratioP1;P1;durP2;ratioP2;P2;SDS_P1;SDS_P2;PMS_P1;PMS_P2;Temp;Humidity;BMP_temperature;BMP_pressure;BME280_temperature;BME280_humidity;BME280_pressure;Samples;Min_cycle;Max_cycle;Signal;HPM_P1;HPM_P2
2022/05/04 00:00:39;;;;;;;9.05;6.03;;;;;;;14.78;63.53;99752.00;1088083;54;20026;-86
2022/05/04 00:01:41;;;;;;;9.13;6.03;;;;;;;14.68;63.98;99750.56;1088440;54;20023;-85
2022/05/04 00:02:45;;;;;;;9.15;6.80;;;;;;;14.59;64.60;99757.81;1088389;54;20018;-86
2022/05/04 00:03:46;;;;;;;9.00;6.15;;;;;;;14.49;64.85;99758.88;1088426;54;20023;-86
2022/05/04 00:04:51;;;;;;;8.18;6.25;;;;;;;14.53;64.93;99753.97;1088420;54;20081;-83
2022/05/04 00:05:55;;;;;;;9.43;6.00;;;;;;;14.32;66.02;99754.63;1088378;54;20030;-87
2022/05/04 00:06:57;;;;;;;8.52;6.75;;;;;;;14.31;65.87;99755.63;1088357;54;20018;-88
2022/05/04 00:08:01;;;;;;;9.68;6.35;;;;;;;14.27;66.33;99754.28;1092500;46;20042;-85
2022/05/04 00:09:03;;;;;;;8.70;6.63;;;;;;;14.26;66.45;99749.97;1090483;46;20187;-87
2022/05/04 00:10:09;;;;;;;8.05;6.47;;;;;;;14.21;66.54;99747.78;1088423;54;20023;-80
2022/05/04 00:11:10;;;;;;;8.73;6.57;;;;;;;14.16;66.42;99745.63;1088407;54;20061;-80
2022/05/04 00:12:15;;;;;;;9.20;6.78;;;;;;;14.12;66.67;99747.00;1088334;54;20046;-81
2022/05/04 00:13:19;;;;;;;9.88;6.47;;;;;;;14.12;66.91;99751.53;1088415;54;20030;-83
2022/05/04 00:14:25;;;;;;;10.57;6.60;;;;;;;14.03;67.35;99742.66;1090377;46;20034;-82
2022/05/04 00:15:30;;;;;;;9.85;6.10;;;;;;;14.14;66.68;99742.28;1090354;46;20023;-81
2022/05/04 00:16:31;;;;;;;7.97;5.82;;;;;;;14.12;66.88;99744.31;1088835;46;20042;-79
2022/05/04 00:17:35;;;;;;;7.13;6.18;;;;;;;14.14;66.80;99742.28;1087964;54;20034;-81
2022/05/04 00:18:37;;;;;;;7.05;5.85;;;;;;;14.08;67.06;99744.81;1090223;46;20046;-80
2022/05/04 00:19:41;;;;;;;8.35;6.68;;;;;;;14.01;67.12;99750.06;1088371;54;20041;-80
2022/05/04 00:20:45;;;;;;;9.25;6.95;;;;;;;14.00;67.44;99748.38;1088337;54;20038;-81
2022/05/04 00:21:47;;;;;;;10.57;6.90;;;;;;;14.00;67.36;99746.53;1091639;39;20589;-80
2022/05/04 00:22:51;;;;;;;9.70;6.65;;;;;;;13.89;67.43;99753.13;1091785;46;20034;-80
2022/05/04 00:23:52;;;;;;;9.10;6.90;;;;;;;13.89;67.67;99750.44;1088372;54;20030;-80
2022/05/04 00:24:56;;;;;;;11.18;6.72;;;;;;;13.90;67.40;99759.34;1088337;54;20041;-79
2022/05/04 00:25:58;;;;;;;10.18;6.43;;;;;;;13.98;67.28;99762.00;1088296;54;20052;-81
2022/05/04 00:27:02;;;;;;;9.95;7.00;;;;;;;13.89;67.46;99757.66;1088282;54;20015;-78
2022/05/04 00:28:04;;;;;;;11.70;6.30;;;;;;;13.93;67.55;99763.53;1089327;46;20019;-82
2022/05/04 00:29:11;;;;;;;8.05;5.82;;;;;;;13.77;68.19;99767.97;1088278;54;20121;-81
2022/05/04 00:30:13;;;;;;;11.55;6.20;;;;;;;13.92;67.60;99759.16;1091030;46;20045;-82
2022/05/04 00:31:17;;;;;;;8.13;5.93;;;;;;;13.99;67.20;99761.00;1088338;54;20030;-81
2022/05/04 00:32:19;;;;;;;9.73;6.07;;;;;;;13.94;66.97;99757.97;1090463;46;20035;-80
2022/05/04 00:33:23;;;;;;;8.43;6.32;;;;;;;13.89;67.20;99763.03;1087902;54;20101;-79
2022/05/04 00:34:24;;;;;;;8.27;6.10;;;;;;;13.92;67.15;99762.69;1088113;54;20049;-80
2022/05/04 00:35:28;;;;;;;10.50;6.47;;;;;;;13.93;66.98;99761.69;1088224;54;20025;-81
2022/05/04 00:36:31;;;;;;;7.82;6.03;;;;;;;13.91;67.32;99757.47;1088414;46;20023;-79
2022/05/04 00:37:35;;;;;;;8.30;6.07;;;;;;;13.89;67.15;99753.13;1088265;54;20069;-80
2022/05/04 00:38:37;;;;;;;9.20;5.80;;;;;;;14.04;66.84;99763.16;1088263;54;20045;-80
2022/05/04 00:39:41;;;;;;;9.60;5.50;;;;;;;14.06;66.32;99750.38;1088269;54;20031;-79
2022/05/04 00:40:42;;;;;;;7.95;5.65;;;;;;;13.95;66.92;99748.91;1088263;54;20042;-80
2022/05/04 00:41:46;;;;;;;7.82;6.25;;;;;;;13.98;66.72;99763.88;1088908;46;20018;-78
2022/05/04 00:42:48;;;;;;;7.57;5.85;;;;;;;14.13;66.36;99761.25;1088189;54;20041;-79
2022/05/04 00:43:56;;;;;;;6.40;5.40;;;;;;;14.25;66.12;99750.97;1088165;54;20031;-79
2022/05/04 00:45:00;;;;;;;7.15;5.72;;;;;;;14.10;66.22;99762.44;1088069;54;20046;-77
2022/05/04 00:46:04;;;;;;;8.35;6.63;;;;;;;14.12;66.34;99765.81;1088027;54;20036;-78
2022/05/04 00:47:07;;;;;;;8.05;6.13;;;;;;;14.18;66.12;99757.03;1088130;54;20031;-78
2022/05/04 00:48:11;;;;;;;10.95;6.82;;;;;;;13.87;66.78;99757.84;1088058;54;20034;-78
2022/05/04 00:49:13;;;;;;;9.98;6.53;;;;;;;13.75;67.65;99769.13;1088065;54;20049;-81
2022/05/04 00:50:17;;;;;;;9.20;6.22;;;;;;;13.78;67.40;99769.63;1087702;54;20030;-80
2022/05/04 00:51:19;;;;;;;8.93;6.55;;;;;;;13.77;67.38;99767.09;1088042;54;20023;-81
2022/05/04 00:52:24;;;;;;;8.00;6.63;;;;;;;13.77;67.70;99762.59;1088207;54;20038;-80
2022/05/04 00:53:25;;;;;;;7.55;6.18;;;;;;;13.93;67.04;99761.69;1089093;39;20507;-82
2022/05/04 00:54:30;;;;;;;7.00;6.07;;;;;;;14.00;66.72;99764.50;1088081;54;20042;-80
2022/05/04 00:55:33;;;;;;;8.10;6.63;;;;;;;14.01;66.51;99763.50;1088210;54;20046;-81
2022/05/04 00:56:37;;;;;;;8.70;6.78;;;;;;;14.04;66.48;99768.53;1088164;54;20041;-78
2022/05/04 00:58:57;;;;;;;7.07;6.03;;;;;;;14.05;66.48;99764.84;1088299;39;20098;-78
2022/05/04 01:00:01;;;;;;;10.48;6.72;;;;;;;14.15;66.15;99760.09;1088028;54;20034;-79
2022/05/04 01:01:07;;;;;;;11.32;7.10;;;;;;;13.96;66.76;99771.25;1087934;54;20035;-79
2022/05/04 01:02:09;;;;;;;9.90;6.85;;;;;;;13.77;67.47;99778.69;1089125;46;20545;-79
2022/05/04 01:03:13;;;;;;;10.35;7.38;;;;;;;13.66;67.89;99774.50;1088095;54;20564;-79
2022/05/04 01:04:18;;;;;;;9.80;7.05;;;;;;;13.65;68.02;99780.06;1088220;54;20030;-81
2022/05/04 01:05:20;;;;;;;9.65;7.40;;;;;;;13.57;68.25;99773.72;1088055;54;20035;-79
2022/05/04 01:06:25;;;;;;;11.75;7.95;;;;;;;13.50;68.57;99775.41;1087841;54;20039;-80
2022/05/04 01:07:26;;;;;;;9.57;6.85;;;;;;;13.51;68.30;99774.38;1087713;54;20042;-78
2022/05/04 01:08:31;;;;;;;8.27;6.40;;;;;;;13.61;68.32;99782.25;1088045;54;20040;-79
2022/05/04 01:09:32;;;;;;;8.57;6.65;;;;;;;13.65;67.89;99780.06;1087922;54;20042;-78
2022/05/04 01:10:37;;;;;;;10.77;6.20;;;;;;;13.67;67.90;99778.88;1088229;54;20042;-78
2022/05/04 01:11:38;;;;;;;10.20;6.85;;;;;;;13.55;68.04;99775.72;1088183;54;20068;-83
2022/05/04 01:12:48;;;;;;;8.40;6.70;;;;;;;13.48;68.66;99768.50;1088149;54;20045;-81
2022/05/04 01:14:04;;;;;;;9.55;7.22;;;;;;;13.33;69.30;99776.38;1088212;54;20041;-80
2022/05/04 01:15:10;;;;;;;8.63;7.38;;;;;;;13.30;69.10;99779.44;1088274;54;20053;-80
2022/05/04 01:16:14;;;;;;;9.20;7.13;;;;;;;13.31;68.98;99773.06;1088144;54;20034;-81
2022/05/04 01:17:15;;;;;;;9.45;6.90;;;;;;;13.34;68.85;99772.69;1088220;54;20034;-79
2022/05/04 01:18:20;;;;;;;8.60;6.60;;;;;;;13.41;68.54;99784.47;1088231;54;20064;-80
2022/05/04 01:19:24;;;;;;;9.05;6.32;;;;;;;13.51;68.25;99778.91;1090822;46;20094;-80
2022/05/04 01:20:26;;;;;;;8.52;6.28;;;;;;;13.65;67.85;99772.84;1088204;54;20030;-83
2022/05/04 01:21:30;;;;;;;7.10;5.60;;;;;;;13.74;67.28;99779.03;1088314;46;20065;-80
2022/05/04 01:22:34;;;;;;;7.65;5.70;;;;;;;13.82;67.03;99775.50;1088033;54;20046;-80
2022/05/04 01:23:39;;;;;;;8.18;5.22;;;;;;;13.84;66.65;99779.69;1087766;54;20030;-81
2022/05/04 01:24:40;;;;;;;9.05;6.22;;;;;;;13.86;66.88;99777.66;1088303;46;20038;-79
2022/05/04 01:25:45;;;;;;;7.22;5.38;;;;;;;13.89;66.66;99779.97;1088149;54;20106;-82
2022/05/04 01:26:46;;;;;;;7.43;5.68;;;;;;;13.93;66.41;99782.34;1089555;46;20038;-82
2022/05/04 01:27:50;;;;;;;6.85;5.40;;;;;;;13.93;66.77;99782.34;1090792;46;20034;-81
2022/05/04 01:28:52;;;;;;;8.18;5.95;;;;;;;13.70;67.34;99783.06;1088252;54;20042;-79
2022/05/04 01:29:56;;;;;;;8.13;5.80;;;;;;;13.64;67.26;99781.06;1088191;54;20018;-78
2022/05/04 01:31:00;;;;;;;7.90;6.03;;;;;;;13.54;67.73;99783.97;1088215;54;20057;-81
2022/05/04 01:32:02;;;;;;;12.70;6.25;;;;;;;13.50;67.63;99778.09;1090305;46;20151;-80
2022/05/04 01:33:06;;;;;;;9.45;6.72;;;;;;;13.45;68.03;99776.94;1087923;54;20054;-83
2022/05/04 01:34:11;;;;;;;8.35;6.95;;;;;;;13.39;67.96;99781.13;1088177;54;20061;-81
2022/05/04 01:35:12;;;;;;;7.78;6.38;;;;;;;13.40;67.91;99780.94;1088175;54;20038;-80
2022/05/04 01:36:16;;;;;;;7.20;5.95;;;;;;;13.37;68.00;99783.94;1088211;54;20042;-82
2022/05/04 01:37:18;;;;;;;7.90;6.38;;;;;;;13.39;68.11;99778.44;1088138;54;20057;-81
2022/05/04 01:38:25;;;;;;;8.75;6.82;;;;;;;13.40;68.15;99783.63;1088136;54;20035;-81
2022/05/04 01:39:26;;;;;;;11.02;6.90;;;;;;;13.38;68.01;99790.16;1090118;46;20038;-80
2022/05/04 01:40:31;;;;;;;8.27;6.40;;;;;;;13.29;68.14;99781.25;1087903;54;20773;-81
2022/05/04 01:42:51;;;;;;;9.05;7.03;;;;;;;13.23;68.72;99788.13;1088193;54;20042;-80
2022/05/04 01:43:53;;;;;;;8.52;6.45;;;;;;;13.17;68.89;99788.81;1088208;54;20034;-80
2022/05/04 01:44:57;;;;;;;7.97;6.45;;;;;;;13.14;68.80;99786.47;1088231;54;20034;-79
2022/05/04 02:14:00;;;;;;;8.60;6.40;;;;;;;13.29;69.21;99777.75;1073932;54;20745;-81
2022/05/04 02:16:35;;;;;;;7.70;6.80;;;;;;;13.38;68.71;99776.72;1088881;54;19950;-83
2022/05/04 03:23:21;;;;;;;11.57;8.05;;;;;;;11.79;75.55;99767.66;1087740;54;20022;-82
2022/05/04 03:57:46;;;;;;;;;;;;;;;11.55;76.25;99772.72;1088776;54;20061;-84
2022/05/04 04:43:39;;;;;;;11.35;9.70;;;;;;;11.55;76.50;99804.00;1088290;54;20025;-81
2022/05/04 04:44:40;;;;;;;11.27;10.07;;;;;;;11.50;77.03;99809.00;1088406;54;20062;-81
2022/05/04 04:45:46;;;;;;;14.68;10.07;;;;;;;11.56;76.60;99811.03;1088355;54;20037;-80
2022/05/04 04:46:50;;;;;;;11.38;9.77;;;;;;;11.57;76.80;99804.69;1088422;54;20046;-80
2022/05/04 04:47:52;;;;;;;11.80;10.27;;;;;;;11.65;76.44;99815.44;1088240;54;20046;-81
2022/05/04 04:48:59;;;;;;;10.85;9.70;;;;;;;11.68;76.10;99815.16;1088341;54;20038;-79
2022/05/04 04:50:01;;;;;;;15.32;11.15;;;;;;;11.66;76.53;99806.41;1088324;54;20034;-80
2022/05/04 04:51:06;;;;;;;14.35;11.40;;;;;;;11.67;76.54;99810.78;1088368;54;20018;-80
2022/05/04 04:52:07;;;;;;;11.90;10.63;;;;;;;11.75;76.21;99814.50;1088775;46;20031;-80
2022/05/04 04:53:13;;;;;;;12.45;10.75;;;;;;;11.79;75.95;99814.03;1088363;54;20033;-80
2022/05/04 04:54:17;;;;;;;14.88;11.13;;;;;;;11.76;76.01;99813.50;1088360;54;20027;-79
2022/05/04 04:55:19;;;;;;;11.95;10.63;;;;;;;11.81;75.80;99814.72;1088407;54;20031;-79
2022/05/04 04:56:23;;;;;;;11.57;10.43;;;;;;;11.89;75.88;99811.25;1089099;46;20034;-80
2022/05/04 04:57:25;;;;;;;12.45;11.13;;;;;;;11.90;75.68;99817.44;1091479;46;20038;-80
2022/05/04 04:58:30;;;;;;;11.77;10.55;;;;;;;11.90;75.76;99818.28;1088313;54;20018;-79
2022/05/04 04:59:39;;;;;;;13.15;11.63;;;;;;;11.90;75.90;99818.28;1088342;54;20037;-80
2022/05/04 05:00:44;;;;;;;11.23;9.98;;;;;;;12.13;75.22;99820.44;1088454;54;20050;-78
2022/05/04 05:01:45;;;;;;;10.90;9.13;;;;;;;12.26;74.62;99817.28;1089241;46;20023;-78
2022/05/04 05:02:50;;;;;;;10.40;8.32;;;;;;;12.37;74.12;99824.22;1091584;46;20029;-79
2022/05/04 05:03:54;;;;;;;9.43;8.43;;;;;;;12.47;73.61;99825.75;1091424;39;20217;-78
2022/05/04 05:04:56;;;;;;;9.07;8.18;;;;;;;12.51;73.36;99820.91;1088469;54;20027;-78
2022/05/04 05:06:00;;;;;;;8.70;7.80;;;;;;;12.58;73.43;99821.94;1088491;54;20034;-79
2022/05/04 05:07:02;;;;;;;9.10;7.80;;;;;;;12.54;73.56;99823.28;1089173;46;20014;-80
2022/05/04 05:08:08;;;;;;;9.82;7.72;;;;;;;12.63;73.00;99824.13;1088445;54;20019;-78
2022/05/04 05:09:12;;;;;;;9.05;7.75;;;;;;;12.69;73.13;99822.63;1088351;54;20022;-78
2022/05/04 05:10:13;;;;;;;9.57;7.90;;;;;;;12.64;73.12;99821.28;1088417;54;20022;-78
2022/05/04 05:11:18;;;;;;;13.57;8.70;;;;;;;12.71;72.88;99828.69;1088433;54;20057;-80
2022/05/04 05:12:21;;;;;;;9.55;7.72;;;;;;;12.74;72.72;99825.69;1089593;46;20018;-81
2022/05/04 05:13:25;;;;;;;9.60;7.30;;;;;;;12.81;72.67;99821.31;1088334;54;20062;-79
2022/05/04 05:17:02;;;;;;;9.77;7.30;;;;;;;12.84;72.20;99814.78;1088467;54;20034;-79
2022/05/04 05:18:08;;;;;;;8.05;7.18;;;;;;;12.89;72.18;99818.66;1088431;54;20093;-79
2022/05/04 05:19:10;;;;;;;10.63;7.57;;;;;;;12.94;72.00;99826.19;1090598;39;20700;-80
2022/05/04 05:20:18;;;;;;;9.82;6.35;;;;;;;12.95;71.96;99817.16;1088379;54;20065;-79
2022/05/04 05:21:28;;;;;;;7.75;6.22;;;;;;;12.97;72.06;99814.28;1090361;46;20011;-80
2022/05/04 05:22:29;;;;;;;10.20;6.60;;;;;;;13.00;71.88;99814.78;1088483;54;20034;-81
2022/05/04 05:23:39;;;;;;;8.68;6.45;;;;;;;13.07;71.89;99820.34;1092070;46;20077;-80
2022/05/04 05:24:41;;;;;;;7.28;6.20;;;;;;;13.10;71.79;99817.34;1088528;54;20052;-80
2022/05/04 05:25:46;;;;;;;11.98;6.82;;;;;;;13.18;71.46;99820.03;1092511;46;20038;-80
2022/05/04 05:33:45;;;;;;;8.30;6.90;;;;;;;13.35;71.02;99822.69;1088219;54;20033;-82
2022/05/04 05:34:46;;;;;;;9.52;6.95;;;;;;;13.39;70.76;99819.53;1089937;39;20531;-82
2022/05/04 05:35:51;;;;;;;8.85;7.47;;;;;;;13.42;70.62;99823.72;1088421;54;20062;-81
2022/05/04 05:40:19;;;;;;;8.30;7.35;;;;;;;13.62;70.25;99818.00;1088124;54;20025;-82
2022/05/04 05:41:23;;;;;;;9.00;7.60;;;;;;;13.65;69.96;99823.03;1088408;54;20023;-81
2022/05/04 05:42:28;;;;;;;9.85;8.20;;;;;;;13.59;69.99;99821.03;1088399;54;20034;-82
2022/05/04 05:43:33;;;;;;;9.55;8.00;;;;;;;13.63;70.23;99830.44;1090205;46;20042;-81
2022/05/04 05:44:34;;;;;;;11.23;9.93;;;;;;;13.48;70.65;99832.94;1090277;46;20029;-79
2022/05/04 05:45:39;;;;;;;12.63;11.23;;;;;;;13.34;70.91;99831.75;1088221;54;20038;-79
2022/05/04 05:46:40;;;;;;;14.00;12.13;;;;;;;13.30;71.20;99822.38;1090636;46;20034;-81
2022/05/04 05:47:45;;;;;;;14.23;12.70;;;;;;;13.25;71.35;99826.38;1089705;46;20027;-80
2022/05/04 05:48:49;;;;;;;19.42;15.80;;;;;;;13.14;71.46;99832.09;1088364;39;20709;-81
2022/05/04 06:51:22;;;;;;;18.60;13.10;;;;;;;14.01;69.69;99844.13;1076752;54;20107;-80
2022/05/04 06:52:27;;;;;;;14.20;10.90;;;;;;;14.16;69.14;99857.69;1087441;54;20042;-80
2022/05/04 06:53:29;;;;;;;18.52;12.70;;;;;;;14.08;69.31;99847.78;1088084;54;20018;-79
2022/05/04 06:54:34;;;;;;;12.50;11.13;;;;;;;14.19;68.99;99852.78;1087978;54;20018;-80
2022/05/04 06:55:38;;;;;;;15.35;11.45;;;;;;;14.31;68.71;99855.13;1087853;54;20042;-81
2022/05/04 06:56:45;;;;;;;13.82;11.07;;;;;;;14.45;68.24;99853.53;1089469;47;20086;-80
2022/05/04 06:57:49;;;;;;;11.60;10.40;;;;;;;14.42;67.94;99852.06;1088117;54;20082;-81
2022/05/04 06:58:51;;;;;;;13.02;11.55;;;;;;;14.49;67.96;99853.03;1089799;47;20011;-80
2022/05/04 06:59:55;;;;;;;10.95;9.85;;;;;;;14.58;67.34;99853.84;1088197;54;20030;-80
2022/05/04 07:01:03;;;;;;;14.00;11.15;;;;;;;14.35;68.11;99859.16;1088406;47;20026;-81
2022/05/04 07:02:05;;;;;;;13.75;11.82;;;;;;;14.09;68.75;99859.38;1089463;47;20817;-81
2022/05/04 07:03:15;;;;;;;15.23;11.93;;;;;;;14.04;69.00;99860.72;1089418;47;20098;-82
2022/05/04 07:04:16;;;;;;;13.48;12.07;;;;;;;13.98;69.22;99858.75;1089451;47;20015;-82
2022/05/04 07:05:21;;;;;;;14.80;10.85;;;;;;;13.90;69.48;99861.44;1088324;54;20030;-81
2022/05/04 07:06:27;;;;;;;12.40;11.10;;;;;;;13.96;69.42;99854.56;1088251;54;20062;-81
2022/05/04 07:07:29;;;;;;;13.68;11.32;;;;;;;13.89;69.61;99857.09;1088505;47;20010;-81
2022/05/04 07:08:34;;;;;;;14.45;12.15;;;;;;;13.86;69.82;99868.16;1089107;39;20739;-82
2022/05/04 07:09:40;;;;;;;12.30;10.98;;;;;;;13.91;69.63;99862.28;1089180;39;20574;-84
2022/05/04 07:10:44;;;;;;;14.80;11.77;;;;;;;13.88;70.02;99864.31;1088320;54;20019;-81
2022/05/04 07:11:55;;;;;;;14.45;11.52;;;;;;;13.89;70.04;99863.28;1088054;54;20034;-81
2022/05/04 07:12:59;;;;;;;14.30;11.27;;;;;;;13.78;70.48;99865.50;1088056;54;20039;-81
2022/05/04 07:14:04;;;;;;;14.30;10.93;;;;;;;13.84;70.24;99865.66;1088285;54;20733;-82
2022/05/04 07:15:09;;;;;;;12.23;10.88;;;;;;;13.82;70.21;99866.84;1088243;54;20050;-83
2022/05/04 07:16:17;;;;;;;17.27;11.43;;;;;;;13.69;71.07;99868.19;1088318;54;20510;-83
2022/05/04 07:17:21;;;;;;;14.02;11.18;;;;;;;13.73;71.11;99863.31;1088266;54;20035;-80
2022/05/04 07:18:26;;;;;;;14.30;11.68;;;;;;;13.76;71.00;99871.03;1088238;54;20046;-81
2022/05/04 07:19:30;;;;;;;12.52;10.73;;;;;;;13.86;70.72;99871.72;1099977;39;20716;-80
2022/05/04 07:20:34;;;;;;;13.02;11.57;;;;;;;13.77;71.07;99872.72;1088240;54;20049;-80
2022/05/04 07:21:42;;;;;;;13.15;11.80;;;;;;;13.83;71.11;99869.34;1088264;54;20019;-81
2022/05/04 07:22:52;;;;;;;16.75;10.75;;;;;;;13.78;71.32;99870.88;1088339;54;20023;-80
2022/05/04 07:23:56;;;;;;;11.90;10.68;;;;;;;13.89;71.10;99863.28;1089765;47;20019;-80
2022/05/04 07:25:00;;;;;;;21.05;11.10;;;;;;;13.86;71.36;99878.91;1088314;54;20015;-81
2022/05/04 07:26:04;;;;;;;13.95;11.50;;;;;;;13.79;71.77;99868.00;1088986;47;20027;-80
2022/05/04 07:27:07;;;;;;;13.40;10.95;;;;;;;13.81;72.04;99871.34;1088175;54;20022;-81
2022/05/04 07:28:11;;;;;;;12.52;10.80;;;;;;;13.81;72.12;99874.06;1088173;54;20081;-79
2022/05/04 07:29:15;;;;;;;14.23;11.70;;;;;;;13.77;72.59;99870.03;1087926;54;20038;-80
2022/05/04 07:30:17;;;;;;;13.40;11.75;;;;;;;13.72;72.65;99878.59;1087863;54;20030;-80
2022/05/04 07:31:22;;;;;;;17.25;12.15;;;;;;;13.64;73.21;99878.63;1088118;54;20034;-80
2022/05/04 07:32:26;;;;;;;15.82;12.63;;;;;;;13.63;73.17;99870.72;1088489;54;20025;-81
2022/05/04 07:33:31;;;;;;;16.38;12.80;;;;;;;13.69;73.09;99878.13;1090464;39;20637;-80
2022/05/04 07:34:37;;;;;;;14.38;10.93;;;;;;;13.75;73.08;99869.38;1088482;54;20029;-80
2022/05/04 07:35:41;;;;;;;12.55;11.23;;;;;;;13.72;73.16;99883.13;1088464;54;20046;-81
2022/05/04 07:36:45;;;;;;;13.25;11.18;;;;;;;13.67;73.24;99885.50;1088498;54;20034;-80
2022/05/04 07:37:50;;;;;;;15.93;12.50;;;;;;;13.64;73.39;99881.31;1088421;54;20828;-80
2022/05/04 07:39:01;;;;;;;12.50;11.23;;;;;;;13.47;74.11;99883.16;1088474;54;20038;-81
2022/05/04 07:42:40;;;;;;;14.85;11.63;;;;;;;13.45;73.80;99882.47;1088565;54;20057;-81
2022/05/04 07:43:48;;;;;;;13.55;11.70;;;;;;;13.49;73.77;99889.19;1088551;54;20026;-80
2022/05/04 07:44:50;;;;;;;14.65;11.90;;;;;;;13.50;73.72;99888.19;1090177;46;20042;-80
2022/05/04 07:46:24;;;;;;;14.98;11.45;;;;;;;13.65;74.30;99888.31;1088617;54;20027;-82
2022/05/04 11:16:33;;;;;;;7.47;5.40;;;;;;;18.38;58.41;99807.72;1068305;39;21416;31
2022/05/04 12:06:43;;;;;;;5.60;3.60;;;;;;;19.64;50.61;99746.63;1066399;54;21188;31
2022/05/04 12:07:49;;;;;;;7.00;3.70;;;;;;;19.62;50.24;99742.44;1067715;54;20179;31
2022/05/04 12:11:10;;;;;;;6.00;4.57;;;;;;;19.36;49.40;99741.47;1067876;54;20296;31
2022/05/04 12:13:24;;;;;;;6.30;3.75;;;;;;;19.75;48.54;99747.00;1067954;54;20345;31
2022/05/04 12:14:37;;;;;;;5.13;3.58;;;;;;;19.86;48.23;99734.69;1068162;54;21566;31
2022/05/04 12:18:51;;;;;;;5.90;3.78;;;;;;;19.98;48.86;99718.59;1068858;39;21279;31
2022/05/04 12:19:57;;;;;;;4.90;3.20;;;;;;;19.85;47.65;99730.28;1068656;54;20659;31
2022/05/04 12:24:14;;;;;;;4.88;3.03;;;;;;;19.90;45.26;99725.09;1068569;54;20036;31
2022/05/04 12:27:24;;;;;;;5.68;3.03;;;;;;;19.87;46.10;99718.22;1068444;54;20034;31
2022/05/04 12:28:31;;;;;;;5.43;2.65;;;;;;;20.03;45.67;99713.34;1088281;39;21446;31
2022/05/04 12:33:09;;;;;;;5.55;3.10;;;;;;;20.20;45.85;99711.00;1067931;54;21551;31
2022/05/04 12:35:18;;;;;;;5.65;3.40;;;;;;;20.19;46.04;99709.31;1067491;54;20517;31
2022/05/04 12:36:24;;;;;;;5.97;3.40;;;;;;;20.19;45.76;99714.75;1067778;54;20038;31
2022/05/04 12:41:41;;;;;;;5.90;3.00;;;;;;;20.22;45.83;99717.00;1068939;54;21727;-87
2022/05/04 12:42:46;;;;;;;4.60;2.95;;;;;;;20.35;44.92;99710.72;1068181;54;20030;31
2022/05/04 12:44:55;;;;;;;5.57;3.28;;;;;;;20.22;46.00;99719.72;1088175;54;21173;-86
2022/05/04 12:54:33;;;;;;;7.00;3.00;;;;;;;19.99;43.49;99715.66;1068601;54;20895;31
2022/05/04 13:14:53;;;;;;;6.70;3.70;;;;;;;20.83;45.51;99698.50;1069349;54;20084;31
2022/05/04 13:15:58;;;;;;;7.47;4.03;;;;;;;20.52;45.51;99700.16;1069333;54;20074;31
2022/05/04 13:18:08;;;;;;;7.40;4.77;;;;;;;20.54;46.41;99690.75;1068914;54;20890;31
2022/05/04 13:21:18;;;;;;;7.35;4.97;;;;;;;20.61;46.87;99687.97;1087946;54;20034;-85
2022/05/04 13:23:44;;;;;;;5.07;3.70;;;;;;;20.98;45.55;99679.16;1083245;54;20026;-86
2022/05/04 13:24:51;;;;;;;6.32;4.18;;;;;;;20.90;46.02;99679.44;1071376;54;20026;31
2022/05/04 13:26:58;;;;;;;5.18;3.65;;;;;;;21.06;45.35;99669.91;1089009;54;20015;-87
2022/05/04 13:29:06;;;;;;;7.35;4.85;;;;;;;20.92;45.70;99680.06;1088906;54;20049;-88
2022/05/04 13:31:16;;;;;;;5.13;4.07;;;;;;;20.74;45.72;99668.06;1088017;54;20090;-88
2022/05/04 13:35:28;;;;;;;6.43;4.70;;;;;;;21.12;45.33;99671.72;1088889;54;20025;-87
2022/05/04 13:37:34;;;;;;;5.60;3.42;;;;;;;21.24;44.69;99667.22;1088992;54;20052;-88
2022/05/04 13:41:45;;;;;;;5.88;4.00;;;;;;;21.40;44.09;99670.41;1088399;54;20015;-86
2022/05/04 13:42:47;;;;;;;5.82;3.67;;;;;;;21.55;43.57;99665.41;1088488;54;20037;-87
2022/05/04 13:45:02;;;;;;;6.65;4.20;;;;;;;21.28;42.77;99656.72;1088445;54;20036;-86
2022/05/04 13:47:12;;;;;;;6.65;4.00;;;;;;;21.37;42.92;99668.13;1088103;54;20033;-87
2022/05/04 13:49:28;;;;;;;6.60;3.85;;;;;;;21.85;42.69;99670.13;1088085;54;20034;-82
2022/05/04 13:53:15;;;;;;;5.70;3.83;;;;;;;22.01;41.81;99668.66;1088285;54;20037;-83
2022/05/04 13:54:21;;;;;;;5.35;3.55;;;;;;;22.01;41.81;99665.13;1088397;54;20041;-83
2022/05/04 13:55:23;;;;;;;5.72;4.07;;;;;;;22.01;42.09;99667.84;1088234;54;20053;-83
2022/05/04 13:56:27;;;;;;;7.97;5.00;;;;;;;21.94;43.11;99668.75;1088262;54;20038;-80
2022/05/04 13:57:31;;;;;;;6.75;5.38;;;;;;;21.95;43.98;99670.41;1088304;54;20022;-83
2022/05/04 13:58:35;;;;;;;8.13;5.30;;;;;;;21.88;45.85;99669.66;1088216;54;20061;-83
2022/05/04 13:59:37;;;;;;;7.57;5.15;;;;;;;21.93;46.12;99671.69;1088226;54;20025;-82
2022/05/04 14:00:42;;;;;;;11.82;6.82;;;;;;;21.45;47.99;99674.09;1088873;46;20106;-82
2022/05/04 14:01:47;;;;;;;9.68;6.82;;;;;;;21.35;48.33;99669.19;1088218;54;20035;-82
2022/05/04 14:02:51;;;;;;;9.48;6.38;;;;;;;21.35;48.40;99669.19;1088195;54;20038;-84
2022/05/04 14:03:56;;;;;;;7.10;5.88;;;;;;;21.47;47.91;99671.16;1088037;54;20031;-83
2022/05/04 14:04:58;;;;;;;13.02;5.82;;;;;;;21.50;49.00;99668.00;1088374;54;20034;-83
2022/05/04 14:06:02;;;;;;;9.95;7.55;;;;;;;21.28;51.01;99673.84;1088133;54;20042;-86
2022/05/04 14:07:04;;;;;;;10.52;7.75;;;;;;;21.15;52.02;99674.00;1087976;54;20095;-85
2022/05/04 14:08:09;;;;;;;10.35;7.35;;;;;;;21.03;52.36;99671.16;1088211;54;20035;-83
2022/05/04 14:09:14;;;;;;;8.43;6.45;;;;;;;21.04;52.20;99676.38;1088214;54;20045;-86
2022/05/04 14:10:15;;;;;;;11.77;7.63;;;;;;;21.12;52.41;99677.97;1088288;54;20082;-82
2022/05/04 14:11:20;;;;;;;9.30;6.95;;;;;;;21.02;52.34;99675.78;1089730;46;20038;-83
2022/05/04 14:12:21;;;;;;;8.55;6.35;;;;;;;21.06;52.38;99680.78;1088282;54;20027;-84
2022/05/04 14:13:27;;;;;;;9.80;7.13;;;;;;;20.98;53.11;99679.97;1088270;54;20046;-84
2022/05/04 14:15:48;;;;;;;7.43;6.30;;;;;;;20.98;53.14;99684.59;1090758;39;20649;-83
2022/05/04 14:16:49;;;;;;;9.40;7.22;;;;;;;20.84;54.24;99686.59;1088305;54;20019;-84
2022/05/04 14:17:56;;;;;;;10.15;6.50;;;;;;;20.86;54.29;99684.50;1088254;54;20034;-83
2022/05/04 14:18:58;;;;;;;9.15;6.13;;;;;;;20.93;53.58;99682.53;1087959;54;20034;-83
2022/05/04 14:20:03;;;;;;;10.07;6.53;;;;;;;20.81;53.73;99695.16;1087981;54;20026;-82
2022/05/04 14:21:08;;;;;;;9.30;6.97;;;;;;;20.69;54.59;99690.41;1087835;54;20042;-83
2022/05/04 14:22:09;;;;;;;8.15;6.97;;;;;;;20.44;54.07;99690.41;1088743;46;20777;-84
2022/05/04 14:23:14;;;;;;;8.38;6.82;;;;;;;20.47;54.01;99694.56;1087965;54;20034;-86
2022/05/04 14:24:16;;;;;;;8.60;7.47;;;;;;;20.30;54.60;99695.06;1088264;39;20731;-84
2022/05/04 14:25:21;;;;;;;12.10;7.55;;;;;;;20.08;55.33;99697.25;1087899;54;20887;-82
2022/05/04 14:26:23;;;;;;;10.82;8.40;;;;;;;19.89;56.36;99696.31;1087907;54;20041;-83
2022/05/04 14:27:27;;;;;;;10.65;7.68;;;;;;;19.76;57.08;99711.53;1088305;54;20026;-84
2022/05/04 14:28:32;;;;;;;9.65;6.70;;;;;;;19.83;57.02;99705.28;1088131;54;20040;-83
2022/05/04 14:29:33;;;;;;;9.35;6.63;;;;;;;19.76;57.23;99708.00;1088195;54;20034;-79
2022/05/04 14:30:39;;;;;;;12.45;6.88;;;;;;;19.71;56.85;99708.66;1091525;39;20613;-84
2022/05/04 14:31:40;;;;;;;10.18;7.78;;;;;;;19.58;57.37;99705.94;1088189;54;20041;-80
2022/05/04 14:32:45;;;;;;;8.10;6.80;;;;;;;19.57;57.27;99707.00;1088179;54;20027;-84
2022/05/04 14:33:52;;;;;;;9.52;6.57;;;;;;;19.46;57.58;99703.06;1088133;54;20041;-82
2022/05/04 14:34:54;;;;;;;9.60;7.10;;;;;;;19.45;56.79;99704.97;1089523;46;20018;-81
2022/05/04 14:35:59;;;;;;;7.45;5.95;;;;;;;19.34;56.83;99708.31;1088224;54;20040;-82
2022/05/04 14:37:04;;;;;;;8.52;6.70;;;;;;;19.26;57.21;99706.63;1088242;54;20118;-82
2022/05/04 14:38:08;;;;;;;9.73;5.85;;;;;;;19.12;57.88;99711.25;1088168;54;20041;-81
2022/05/04 14:39:10;;;;;;;10.15;6.57;;;;;;;19.11;57.27;99698.72;1088141;54;20030;-80
2022/05/04 14:40:14;;;;;;;12.65;6.80;;;;;;;18.96;57.51;99711.66;1095667;39;20452;-80
2022/05/04 14:41:16;;;;;;;8.70;6.07;;;;;;;18.96;56.91;99711.66;1088117;54;20037;-83
2022/05/04 14:43:22;;;;;;;9.77;5.55;;;;;;;18.76;56.54;99712.44;1088204;54;20015;-84
2022/05/04 14:44:24;;;;;;;7.72;5.07;;;;;;;18.73;56.21;99702.03;1088343;54;20034;-85